sensor_id;sensor_type;location;lat;lon;timestamp;temperature;humidity
14101;DHT22;7127;49.372;8.166;2022-07-10T00:00:06;22.60;46.30
14101;DHT22;7127;49.372;8.166;2022-07-10T00:02:33;22.60;46.30
14101;DHT22;7127;49.372;8.166;2022-07-10T00:05:01;22.60;46.30
14101;DHT22;7127;49.372;8.166;2022-07-10T00:07:27;22.50;46.30
14101;DHT22;7127;49.372;8.166;2022-07-10T00:09:55;22.50;46.20
14101;DHT22;7127;49.372;8.166;2022-07-10T00:12:23;22.50;46.20
14101;DHT22;7127;49.372;8.166;2022-07-10T00:14:50;22.50;46.50
14101;DHT22;7127;49.372;8.166;2022-07-10T00:17:17;22.40;46.40
14101;DHT22;7127;49.372;8.166;2022-07-10T00:19:44;22.40;46.40
14101;DHT22;7127;49.372;8.166;2022-07-10T00:22:11;22.30;46.20
14101;DHT22;7127;49.372;8.166;2022-07-10T00:24:38;22.30;46.40
14101;DHT22;7127;49.372;8.166;2022-07-10T00:27:05;22.30;46.40
14101;DHT22;7127;49.372;8.166;2022-07-10T00:29:34;22.30;46.60
14101;DHT22;7127;49.372;8.166;2022-07-10T00:32:01;22.20;46.50
14101;DHT22;7127;49.372;8.166;2022-07-10T00:34:28;22.20;46.60
14101;DHT22;7127;49.372;8.166;2022-07-10T00:36:55;22.10;46.60
14101;DHT22;7127;49.372;8.166;2022-07-10T00:39:22;22.10;46.50
14101;DHT22;7127;49.372;8.166;2022-07-10T00:41:49;22.10;46.50
14101;DHT22;7127;49.372;8.166;2022-07-10T00:44:16;22.00;46.70
14101;DHT22;7127;49.372;8.166;2022-07-10T00:46:46;22.00;46.80
14101;DHT22;7127;49.372;8.166;2022-07-10T00:49:13;21.90;47.20
14101;DHT22;7127;49.372;8.166;2022-07-10T00:51:40;21.90;46.70
14101;DHT22;7127;49.372;8.166;2022-07-10T00:54:07;21.90;46.90
14101;DHT22;7127;49.372;8.166;2022-07-10T00:56:35;21.90;46.90
14101;DHT22;7127;49.372;8.166;2022-07-10T00:59:03;21.80;46.80
14101;DHT22;7127;49.372;8.166;2022-07-10T01:01:31;21.80;46.80
14101;DHT22;7127;49.372;8.166;2022-07-10T01:04:00;21.70;47.00
14101;DHT22;7127;49.372;8.166;2022-07-10T01:06:27;21.70;47.00
14101;DHT22;7127;49.372;8.166;2022-07-10T01:08:54;21.60;46.90
14101;DHT22;7127;49.372;8.166;2022-07-10T01:11:22;21.60;47.00
14101;DHT22;7127;49.372;8.166;2022-07-10T01:13:49;21.60;47.20
14101;DHT22;7127;49.372;8.166;2022-07-10T01:16:16;21.60;47.20
14101;DHT22;7127;49.372;8.166;2022-07-10T01:18:43;21.50;47.10
14101;DHT22;7127;49.372;8.166;2022-07-10T01:21:25;21.40;47.00
14101;DHT22;7127;49.372;8.166;2022-07-10T01:23:53;21.40;47.90
14101;DHT22;7127;49.372;8.166;2022-07-10T01:26:20;21.30;47.50
14101;DHT22;7127;49.372;8.166;2022-07-10T01:28:49;21.30;47.40
14101;DHT22;7127;49.372;8.166;2022-07-10T01:31:17;21.20;47.50
14101;DHT22;7127;49.372;8.166;2022-07-10T01:33:45;21.20;47.50
14101;DHT22;7127;49.372;8.166;2022-07-10T01:36:12;21.20;47.80
14101;DHT22;7127;49.372;8.166;2022-07-10T01:38:41;21.20;47.50
14101;DHT22;7127;49.372;8.166;2022-07-10T01:41:08;21.20;47.60
14101;DHT22;7127;49.372;8.166;2022-07-10T01:43:35;21.10;47.70
14101;DHT22;7127;49.372;8.166;2022-07-10T01:46:02;21.10;48.10
14101;DHT22;7127;49.372;8.166;2022-07-10T01:48:30;21.10;47.90
14101;DHT22;7127;49.372;8.166;2022-07-10T01:50:57;21.10;47.90
14101;DHT22;7127;49.372;8.166;2022-07-10T01:53:24;21.00;48.20
14101;DHT22;7127;49.372;8.166;2022-07-10T01:55:53;21.00;48.00
14101;DHT22;7127;49.372;8.166;2022-07-10T01:58:20;21.00;48.00
14101;DHT22;7127;49.372;8.166;2022-07-10T02:00:47;21.00;48.70
14101;DHT22;7127;49.372;8.166;2022-07-10T02:03:14;21.00;48.10
14101;DHT22;7127;49.372;8.166;2022-07-10T02:05:59;21.00;48.10
14101;DHT22;7127;49.372;8.166;2022-07-10T02:08:26;20.90;48.00
14101;DHT22;7127;49.372;8.166;2022-07-10T02:10:54;20.90;47.90
14101;DHT22;7127;49.372;8.166;2022-07-10T02:13:21;20.80;47.90
14101;DHT22;7127;49.372;8.166;2022-07-10T02:15:50;20.80;48.00
14101;DHT22;7127;49.372;8.166;2022-07-10T02:18:17;20.80;48.00
14101;DHT22;7127;49.372;8.166;2022-07-10T02:20:44;20.70;47.90
14101;DHT22;7127;49.372;8.166;2022-07-10T02:23:11;20.70;48.00
14101;DHT22;7127;49.372;8.166;2022-07-10T02:25:39;20.70;47.90
14101;DHT22;7127;49.372;8.166;2022-07-10T02:28:08;20.70;48.00
14101;DHT22;7127;49.372;8.166;2022-07-10T02:30:35;20.70;48.30
14101;DHT22;7127;49.372;8.166;2022-07-10T02:33:02;20.60;47.90
14101;DHT22;7127;49.372;8.166;2022-07-10T02:35:29;20.60;48.10
14101;DHT22;7127;49.372;8.166;2022-07-10T02:37:56;20.60;48.10
14101;DHT22;7127;49.372;8.166;2022-07-10T02:40:23;20.60;48.30
14101;DHT22;7127;49.372;8.166;2022-07-10T02:42:50;20.50;48.00
14101;DHT22;7127;49.372;8.166;2022-07-10T02:45:18;20.50;47.90
14101;DHT22;7127;49.372;8.166;2022-07-10T02:47:45;20.60;48.10
14101;DHT22;7127;49.372;8.166;2022-07-10T02:50:13;20.50;48.10
14101;DHT22;7127;49.372;8.166;2022-07-10T02:52:40;20.50;48.10
14101;DHT22;7127;49.372;8.166;2022-07-10T02:55:08;20.50;47.80
14101;DHT22;7127;49.372;8.166;2022-07-10T02:57:35;20.50;47.80
14101;DHT22;7127;49.372;8.166;2022-07-10T03:00:02;20.50;47.90
14101;DHT22;7127;49.372;8.166;2022-07-10T03:02:31;20.50;47.80
14101;DHT22;7127;49.372;8.166;2022-07-10T03:04:58;20.50;47.80
14101;DHT22;7127;49.372;8.166;2022-07-10T03:07:25;20.50;47.80
14101;DHT22;7127;49.372;8.166;2022-07-10T03:09:52;20.40;47.50
14101;DHT22;7127;49.372;8.166;2022-07-10T03:12:19;20.50;47.70
14101;DHT22;7127;49.372;8.166;2022-07-10T03:14:46;20.50;47.70
14101;DHT22;7127;49.372;8.166;2022-07-10T03:17:13;20.40;47.50
14101;DHT22;7127;49.372;8.166;2022-07-10T03:19:41;20.40;47.60
14101;DHT22;7127;49.372;8.166;2022-07-10T03:22:08;20.40;47.80
14101;DHT22;7127;49.372;8.166;2022-07-10T03:24:35;20.40;47.80
14101;DHT22;7127;49.372;8.166;2022-07-10T03:27:02;20.40;47.90
14101;DHT22;7127;49.372;8.166;2022-07-10T03:29:30;20.30;47.80
14101;DHT22;7127;49.372;8.166;2022-07-10T03:31:57;20.30;47.80
14101;DHT22;7127;49.372;8.166;2022-07-10T03:34:24;20.30;47.90
14101;DHT22;7127;49.372;8.166;2022-07-10T03:36:53;20.20;47.90
14101;DHT22;7127;49.372;8.166;2022-07-10T03:39:20;20.20;47.90
14101;DHT22;7127;49.372;8.166;2022-07-10T03:41:47;20.20;48.20
14101;DHT22;7127;49.372;8.166;2022-07-10T03:44:14;20.10;47.80
14101;DHT22;7127;49.372;8.166;2022-07-10T03:46:41;20.10;48.00
14101;DHT22;7127;49.372;8.166;2022-07-10T03:49:08;20.10;48.20
14101;DHT22;7127;49.372;8.166;2022-07-10T03:51:35;20.10;48.30
14101;DHT22;7127;49.372;8.166;2022-07-10T03:54:03;20.10;48.40
14101;DHT22;7127;49.372;8.166;2022-07-10T03:56:30;20.00;48.20
14101;DHT22;7127;49.372;8.166;2022-07-10T03:59:14;20.00;48.30
14101;DHT22;7127;49.372;8.166;2022-07-10T04:01:41;20.00;48.20
14101;DHT22;7127;49.372;8.166;2022-07-10T04:04:08;20.00;48.30
14101;DHT22;7127;49.372;8.166;2022-07-10T04:06:35;19.90;48.20
14101;DHT22;7127;49.372;8.166;2022-07-10T04:09:05;19.90;48.50
14101;DHT22;7127;49.372;8.166;2022-07-10T04:11:32;20.00;48.60
14101;DHT22;7127;49.372;8.166;2022-07-10T04:13:59;19.90;48.60
14101;DHT22;7127;49.372;8.166;2022-07-10T04:16:26;19.90;48.60
14101;DHT22;7127;49.372;8.166;2022-07-10T04:18:53;19.90;48.50
14101;DHT22;7127;49.372;8.166;2022-07-10T04:21:20;19.90;48.60
14101;DHT22;7127;49.372;8.166;2022-07-10T04:23:47;19.90;48.60
14101;DHT22;7127;49.372;8.166;2022-07-10T04:26:16;19.90;48.60
14101;DHT22;7127;49.372;8.166;2022-07-10T04:28:43;19.90;48.60
14101;DHT22;7127;49.372;8.166;2022-07-10T04:31:10;19.90;48.60
14101;DHT22;7127;49.372;8.166;2022-07-10T04:33:37;19.90;48.60
14101;DHT22;7127;49.372;8.166;2022-07-10T04:36:05;19.90;48.50
14101;DHT22;7127;49.372;8.166;2022-07-10T04:38:32;19.80;48.70
14101;DHT22;7127;49.372;8.166;2022-07-10T04:40:59;19.80;48.70
14101;DHT22;7127;49.372;8.166;2022-07-10T04:43:30;19.90;48.60
14101;DHT22;7127;49.372;8.166;2022-07-10T04:45:57;19.80;48.50
14101;DHT22;7127;49.372;8.166;2022-07-10T04:48:24;19.80;48.60
14101;DHT22;7127;49.372;8.166;2022-07-10T04:50:51;19.80;48.80
14101;DHT22;7127;49.372;8.166;2022-07-10T04:53:21;19.80;48.50
14101;DHT22;7127;49.372;8.166;2022-07-10T04:55:49;19.80;48.40
14101;DHT22;7127;49.372;8.166;2022-07-10T04:58:16;19.80;48.60
14101;DHT22;7127;49.372;8.166;2022-07-10T05:00:45;19.70;48.30
14101;DHT22;7127;49.372;8.166;2022-07-10T05:03:12;19.80;48.40
14101;DHT22;7127;49.372;8.166;2022-07-10T05:05:41;19.80;48.50
14101;DHT22;7127;49.372;8.166;2022-07-10T05:08:09;19.80;48.50
14101;DHT22;7127;49.372;8.166;2022-07-10T05:10:36;19.70;48.40
14101;DHT22;7127;49.372;8.166;2022-07-10T05:13:03;19.70;48.60
14101;DHT22;7127;49.372;8.166;2022-07-10T05:15:30;19.70;48.40
14101;DHT22;7127;49.372;8.166;2022-07-10T05:17:59;19.60;48.70
14101;DHT22;7127;49.372;8.166;2022-07-10T05:20:26;19.60;48.50
14101;DHT22;7127;49.372;8.166;2022-07-10T05:22:53;19.60;48.40
14101;DHT22;7127;49.372;8.166;2022-07-10T05:25:20;19.60;48.40
14101;DHT22;7127;49.372;8.166;2022-07-10T05:27:47;19.60;48.50
14101;DHT22;7127;49.372;8.166;2022-07-10T05:30:14;19.60;48.40
14101;DHT22;7127;49.372;8.166;2022-07-10T05:32:42;19.60;48.30
14101;DHT22;7127;49.372;8.166;2022-07-10T05:35:11;19.60;48.40
14101;DHT22;7127;49.372;8.166;2022-07-10T05:37:39;19.60;48.40
14101;DHT22;7127;49.372;8.166;2022-07-10T05:40:07;19.60;48.20
14101;DHT22;7127;49.372;8.166;2022-07-10T05:42:34;19.50;48.20
14101;DHT22;7127;49.372;8.166;2022-07-10T05:45:02;19.50;48.00
14101;DHT22;7127;49.372;8.166;2022-07-10T05:47:30;19.50;47.80
14101;DHT22;7127;49.372;8.166;2022-07-10T05:49:57;19.50;47.80
14101;DHT22;7127;49.372;8.166;2022-07-10T05:52:25;19.50;47.70
14101;DHT22;7127;49.372;8.166;2022-07-10T05:54:53;19.50;47.30
14101;DHT22;7127;49.372;8.166;2022-07-10T05:57:20;19.50;47.00
14101;DHT22;7127;49.372;8.166;2022-07-10T05:59:47;19.50;46.60
14101;DHT22;7127;49.372;8.166;2022-07-10T06:02:14;19.50;46.50
14101;DHT22;7127;49.372;8.166;2022-07-10T06:04:42;19.40;46.20
14101;DHT22;7127;49.372;8.166;2022-07-10T06:07:09;19.40;45.90
14101;DHT22;7127;49.372;8.166;2022-07-10T06:09:37;19.40;45.90
14101;DHT22;7127;49.372;8.166;2022-07-10T06:12:04;19.40;46.00
14101;DHT22;7127;49.372;8.166;2022-07-10T06:14:32;19.40;46.00
14101;DHT22;7127;49.372;8.166;2022-07-10T06:16:59;19.40;45.60
14101;DHT22;7127;49.372;8.166;2022-07-10T06:19:26;19.50;45.70
14101;DHT22;7127;49.372;8.166;2022-07-10T06:21:53;19.50;45.80
14101;DHT22;7127;49.372;8.166;2022-07-10T06:24:34;19.50;45.80
14101;DHT22;7127;49.372;8.166;2022-07-10T06:27:02;19.60;45.90
14101;DHT22;7127;49.372;8.166;2022-07-10T06:29:30;19.60;45.60
14101;DHT22;7127;49.372;8.166;2022-07-10T06:31:57;19.70;46.00
14101;DHT22;7127;49.372;8.166;2022-07-10T06:34:24;19.70;45.60
14101;DHT22;7127;49.372;8.166;2022-07-10T06:36:51;19.80;45.20
14101;DHT22;7127;49.372;8.166;2022-07-10T06:39:18;19.80;45.10
14101;DHT22;7127;49.372;8.166;2022-07-10T06:41:45;19.80;45.00
14101;DHT22;7127;49.372;8.166;2022-07-10T06:44:13;19.90;44.90
14101;DHT22;7127;49.372;8.166;2022-07-10T06:46:40;20.00;44.20
14101;DHT22;7127;49.372;8.166;2022-07-10T06:49:07;20.00;44.70
14101;DHT22;7127;49.372;8.166;2022-07-10T06:51:34;20.10;44.40
14101;DHT22;7127;49.372;8.166;2022-07-10T06:54:01;20.10;44.00
14101;DHT22;7127;49.372;8.166;2022-07-10T06:56:28;20.20;43.70
14101;DHT22;7127;49.372;8.166;2022-07-10T06:58:56;20.20;43.50
14101;DHT22;7127;49.372;8.166;2022-07-10T07:01:24;20.20;43.60
14101;DHT22;7127;49.372;8.166;2022-07-10T07:03:51;20.40;44.00
14101;DHT22;7127;49.372;8.166;2022-07-10T07:06:19;20.40;43.50
14101;DHT22;7127;49.372;8.166;2022-07-10T07:08:46;20.40;43.80
14101;DHT22;7127;49.372;8.166;2022-07-10T07:11:13;20.50;44.00
14101;DHT22;7127;49.372;8.166;2022-07-10T07:13:40;20.50;43.40
14101;DHT22;7127;49.372;8.166;2022-07-10T07:16:07;20.60;42.40
14101;DHT22;7127;49.372;8.166;2022-07-10T07:18:36;20.70;43.10
14101;DHT22;7127;49.372;8.166;2022-07-10T07:21:12;20.80;42.60
14101;DHT22;7127;49.372;8.166;2022-07-10T07:23:56;20.80;42.40
14101;DHT22;7127;49.372;8.166;2022-07-10T07:26:23;20.90;42.50
14101;DHT22;7127;49.372;8.166;2022-07-10T07:28:50;21.00;42.00
14101;DHT22;7127;49.372;8.166;2022-07-10T07:31:18;21.00;41.30
14101;DHT22;7127;49.372;8.166;2022-07-10T07:33:47;21.00;40.50
14101;DHT22;7127;49.372;8.166;2022-07-10T07:36:14;21.00;40.70
14101;DHT22;7127;49.372;8.166;2022-07-10T07:38:41;21.00;41.20
14101;DHT22;7127;49.372;8.166;2022-07-10T07:41:08;21.00;41.40
14101;DHT22;7127;49.372;8.166;2022-07-10T07:43:36;21.00;41.20
14101;DHT22;7127;49.372;8.166;2022-07-10T07:46:03;21.00;41.10
14101;DHT22;7127;49.372;8.166;2022-07-10T07:48:30;21.00;40.70
14101;DHT22;7127;49.372;8.166;2022-07-10T07:50:59;21.00;41.20
14101;DHT22;7127;49.372;8.166;2022-07-10T07:53:26;21.00;41.20
14101;DHT22;7127;49.372;8.166;2022-07-10T07:55:53;21.10;41.60
14101;DHT22;7127;49.372;8.166;2022-07-10T07:58:20;21.10;41.40
14101;DHT22;7127;49.372;8.166;2022-07-10T08:00:47;21.20;40.90
14101;DHT22;7127;49.372;8.166;2022-07-10T08:03:14;21.20;41.00
14101;DHT22;7127;49.372;8.166;2022-07-10T08:05:42;21.30;41.20
14101;DHT22;7127;49.372;8.166;2022-07-10T08:08:11;21.40;41.60
14101;DHT22;7127;49.372;8.166;2022-07-10T08:10:38;21.50;41.40
14101;DHT22;7127;49.372;8.166;2022-07-10T08:13:05;21.60;41.00
14101;DHT22;7127;49.372;8.166;2022-07-10T08:15:32;21.70;40.80
14101;DHT22;7127;49.372;8.166;2022-07-10T08:18:00;21.70;40.20
14101;DHT22;7127;49.372;8.166;2022-07-10T08:20:29;21.80;40.00
14101;DHT22;7127;49.372;8.166;2022-07-10T08:22:57;21.80;39.60
14101;DHT22;7127;49.372;8.166;2022-07-10T08:25:26;21.80;39.70
14101;DHT22;7127;49.372;8.166;2022-07-10T08:27:59;21.70;40.10
14101;DHT22;7127;49.372;8.166;2022-07-10T08:30:26;21.80;40.30
14101;DHT22;7127;49.372;8.166;2022-07-10T08:32:53;21.90;39.60
14101;DHT22;7127;49.372;8.166;2022-07-10T08:35:21;21.90;39.70
14101;DHT22;7127;49.372;8.166;2022-07-10T08:37:48;22.00;40.20
14101;DHT22;7127;49.372;8.166;2022-07-10T08:40:16;22.10;39.30
14101;DHT22;7127;49.372;8.166;2022-07-10T08:42:45;22.10;38.90
14101;DHT22;7127;49.372;8.166;2022-07-10T08:45:14;22.10;39.30
14101;DHT22;7127;49.372;8.166;2022-07-10T08:47:42;22.20;39.60
14101;DHT22;7127;49.372;8.166;2022-07-10T08:50:16;22.20;39.70
14101;DHT22;7127;49.372;8.166;2022-07-10T08:52:51;22.30;39.40
14101;DHT22;7127;49.372;8.166;2022-07-10T08:55:24;22.30;39.10
14101;DHT22;7127;49.372;8.166;2022-07-10T08:57:53;22.40;38.60
14101;DHT22;7127;49.372;8.166;2022-07-10T09:00:21;22.40;38.50
14101;DHT22;7127;49.372;8.166;2022-07-10T09:02:48;22.40;38.50
14101;DHT22;7127;49.372;8.166;2022-07-10T09:05:16;22.40;38.20
14101;DHT22;7127;49.372;8.166;2022-07-10T09:07:43;22.40;38.50
14101;DHT22;7127;49.372;8.166;2022-07-10T09:10:11;22.40;38.50
14101;DHT22;7127;49.372;8.166;2022-07-10T09:12:54;22.40;38.40
14101;DHT22;7127;49.372;8.166;2022-07-10T09:15:23;22.40;37.70
14101;DHT22;7127;49.372;8.166;2022-07-10T09:17:52;22.40;38.10
14101;DHT22;7127;49.372;8.166;2022-07-10T09:20:28;22.40;37.90
14101;DHT22;7127;49.372;8.166;2022-07-10T09:22:57;22.40;37.90
14101;DHT22;7127;49.372;8.166;2022-07-10T09:25:30;22.40;37.90
14101;DHT22;7127;49.372;8.166;2022-07-10T09:27:59;22.40;37.30
14101;DHT22;7127;49.372;8.166;2022-07-10T09:30:35;22.50;38.10
14101;DHT22;7127;49.372;8.166;2022-07-10T09:33:22;22.60;38.20
14101;DHT22;7127;49.372;8.166;2022-07-10T09:36:00;22.60;38.10
14101;DHT22;7127;49.372;8.166;2022-07-10T09:38:50;22.70;38.20
14101;DHT22;7127;49.372;8.166;2022-07-10T09:41:19;22.80;37.30
14101;DHT22;7127;49.372;8.166;2022-07-10T09:43:49;22.90;38.00
14101;DHT22;7127;49.372;8.166;2022-07-10T09:46:17;22.90;38.00
14101;DHT22;7127;49.372;8.166;2022-07-10T09:48:45;23.10;38.60
14101;DHT22;7127;49.372;8.166;2022-07-10T09:51:12;23.10;38.40
14101;DHT22;7127;49.372;8.166;2022-07-10T09:53:40;23.20;37.70
14101;DHT22;7127;49.372;8.166;2022-07-10T09:56:09;23.40;38.10
14101;DHT22;7127;49.372;8.166;2022-07-10T09:58:37;23.40;37.70
14101;DHT22;7127;49.372;8.166;2022-07-10T10:01:07;23.50;37.90
14101;DHT22;7127;49.372;8.166;2022-07-10T10:03:35;23.50;36.90
14101;DHT22;7127;49.372;8.166;2022-07-10T10:06:05;23.50;37.30
14101;DHT22;7127;49.372;8.166;2022-07-10T10:08:42;23.60;36.80
14101;DHT22;7127;49.372;8.166;2022-07-10T10:11:14;23.60;37.00
14101;DHT22;7127;49.372;8.166;2022-07-10T10:13:43;23.60;36.60
14101;DHT22;7127;49.372;8.166;2022-07-10T10:16:12;23.60;37.10
14101;DHT22;7127;49.372;8.166;2022-07-10T10:18:41;23.70;37.10
14101;DHT22;7127;49.372;8.166;2022-07-10T10:21:23;23.70;36.50
14101;DHT22;7127;49.372;8.166;2022-07-10T10:23:51;23.70;36.20
14101;DHT22;7127;49.372;8.166;2022-07-10T10:26:19;23.70;36.60
14101;DHT22;7127;49.372;8.166;2022-07-10T10:28:47;23.70;36.20
14101;DHT22;7127;49.372;8.166;2022-07-10T10:31:16;23.80;36.70
14101;DHT22;7127;49.372;8.166;2022-07-10T10:33:45;23.80;36.40
14101;DHT22;7127;49.372;8.166;2022-07-10T10:36:15;23.80;36.00
14101;DHT22;7127;49.372;8.166;2022-07-10T10:39:04;23.80;35.50
14101;DHT22;7127;49.372;8.166;2022-07-10T10:41:39;23.80;35.20
14101;DHT22;7127;49.372;8.166;2022-07-10T10:44:27;23.80;35.50
14101;DHT22;7127;49.372;8.166;2022-07-10T10:47:06;23.80;35.80
14101;DHT22;7127;49.372;8.166;2022-07-10T10:49:52;23.80;36.40
14101;DHT22;7127;49.372;8.166;2022-07-10T10:52:20;23.90;36.50
14101;DHT22;7127;49.372;8.166;2022-07-10T10:55:01;24.00;35.90
14101;DHT22;7127;49.372;8.166;2022-07-10T10:57:41;24.10;36.00
14101;DHT22;7127;49.372;8.166;2022-07-10T11:00:15;24.10;34.70
14101;DHT22;7127;49.372;8.166;2022-07-10T11:03:15;24.10;35.60
14101;DHT22;7127;49.372;8.166;2022-07-10T11:05:44;24.20;35.10
14101;DHT22;7127;49.372;8.166;2022-07-10T11:08:12;24.20;35.90
14101;DHT22;7127;49.372;8.166;2022-07-10T11:10:41;24.20;35.60
14101;DHT22;7127;49.372;8.166;2022-07-10T11:13:09;24.20;35.50
14101;DHT22;7127;49.372;8.166;2022-07-10T11:15:38;24.20;35.40
14101;DHT22;7127;49.372;8.166;2022-07-10T11:18:08;24.30;35.70
14101;DHT22;7127;49.372;8.166;2022-07-10T11:20:39;24.30;35.80
14101;DHT22;7127;49.372;8.166;2022-07-10T11:23:14;24.40;35.90
14101;DHT22;7127;49.372;8.166;2022-07-10T11:25:49;24.50;35.40
14101;DHT22;7127;49.372;8.166;2022-07-10T11:28:36;24.60;35.50
14101;DHT22;7127;49.372;8.166;2022-07-10T11:31:08;24.60;35.50
14101;DHT22;7127;49.372;8.166;2022-07-10T11:33:39;24.70;35.50
14101;DHT22;7127;49.372;8.166;2022-07-10T11:36:14;24.80;34.90
14101;DHT22;7127;49.372;8.166;2022-07-10T11:38:42;24.90;34.90
14101;DHT22;7127;49.372;8.166;2022-07-10T11:41:13;24.90;34.30
14101;DHT22;7127;49.372;8.166;2022-07-10T11:43:50;24.90;34.80
14101;DHT22;7127;49.372;8.166;2022-07-10T11:46:18;25.00;35.30
14101;DHT22;7127;49.372;8.166;2022-07-10T11:48:47;25.10;35.50
14101;DHT22;7127;49.372;8.166;2022-07-10T11:51:22;25.20;35.80
14101;DHT22;7127;49.372;8.166;2022-07-10T11:54:00;25.40;35.70
14101;DHT22;7127;49.372;8.166;2022-07-10T11:56:29;25.50;35.00
14101;DHT22;7127;49.372;8.166;2022-07-10T11:58:59;25.60;34.70
14101;DHT22;7127;49.372;8.166;2022-07-10T12:01:28;25.60;33.90
14101;DHT22;7127;49.372;8.166;2022-07-10T12:03:57;25.70;34.30
14101;DHT22;7127;49.372;8.166;2022-07-10T12:06:26;25.70;34.10
14101;DHT22;7127;49.372;8.166;2022-07-10T12:08:55;25.80;34.20
14101;DHT22;7127;49.372;8.166;2022-07-10T12:11:22;25.80;34.30
14101;DHT22;7127;49.372;8.166;2022-07-10T12:13:51;25.90;33.90
14101;DHT22;7127;49.372;8.166;2022-07-10T12:16:20;25.90;33.60
14101;DHT22;7127;49.372;8.166;2022-07-10T12:18:49;26.00;33.70
14101;DHT22;7127;49.372;8.166;2022-07-10T12:21:16;26.00;34.20
14101;DHT22;7127;49.372;8.166;2022-07-10T12:23:48;26.10;33.10
14101;DHT22;7127;49.372;8.166;2022-07-10T12:26:16;26.10;33.60
14101;DHT22;7127;49.372;8.166;2022-07-10T12:28:54;26.10;33.50
14101;DHT22;7127;49.372;8.166;2022-07-10T12:31:22;26.00;32.50
14101;DHT22;7127;49.372;8.166;2022-07-10T12:33:55;26.00;33.20
14101;DHT22;7127;49.372;8.166;2022-07-10T12:36:24;26.00;33.20
14101;DHT22;7127;49.372;8.166;2022-07-10T12:38:57;25.90;33.30
14101;DHT22;7127;49.372;8.166;2022-07-10T12:41:25;25.90;33.60
14101;DHT22;7127;49.372;8.166;2022-07-10T12:43:52;25.90;33.80
14101;DHT22;7127;49.372;8.166;2022-07-10T12:46:21;25.90;33.40
14101;DHT22;7127;49.372;8.166;2022-07-10T12:49:05;25.90;33.60
14101;DHT22;7127;49.372;8.166;2022-07-10T12:51:34;25.90;33.10
14101;DHT22;7127;49.372;8.166;2022-07-10T12:54:02;25.90;33.80
14101;DHT22;7127;49.372;8.166;2022-07-10T12:56:32;25.90;34.00
14101;DHT22;7127;49.372;8.166;2022-07-10T12:59:00;25.90;33.90
14101;DHT22;7127;49.372;8.166;2022-07-10T13:01:28;26.00;33.90
14101;DHT22;7127;49.372;8.166;2022-07-10T13:04:00;26.00;33.50
14101;DHT22;7127;49.372;8.166;2022-07-10T13:06:31;26.10;33.20
14101;DHT22;7127;49.372;8.166;2022-07-10T13:08:59;26.10;33.60
14101;DHT22;7127;49.372;8.166;2022-07-10T13:11:28;26.20;33.70
14101;DHT22;7127;49.372;8.166;2022-07-10T13:13:55;26.20;33.50
14101;DHT22;7127;49.372;8.166;2022-07-10T13:16:23;26.30;34.10
14101;DHT22;7127;49.372;8.166;2022-07-10T13:18:50;26.30;33.30
14101;DHT22;7127;49.372;8.166;2022-07-10T13:21:17;26.40;33.50
14101;DHT22;7127;49.372;8.166;2022-07-10T13:23:44;26.40;33.50
14101;DHT22;7127;49.372;8.166;2022-07-10T13:26:13;26.50;33.50
14101;DHT22;7127;49.372;8.166;2022-07-10T13:28:42;26.60;33.30
14101;DHT22;7127;49.372;8.166;2022-07-10T13:31:09;26.60;33.40
14101;DHT22;7127;49.372;8.166;2022-07-10T13:33:38;26.70;33.70
14101;DHT22;7127;49.372;8.166;2022-07-10T13:36:05;26.80;33.30
14101;DHT22;7127;49.372;8.166;2022-07-10T13:38:34;26.80;33.20
14101;DHT22;7127;49.372;8.166;2022-07-10T13:41:02;26.80;33.10
14101;DHT22;7127;49.372;8.166;2022-07-10T13:43:29;26.80;33.10
14101;DHT22;7127;49.372;8.166;2022-07-10T13:45:59;26.80;33.20
14101;DHT22;7127;49.372;8.166;2022-07-10T13:48:27;26.80;32.90
14101;DHT22;7127;49.372;8.166;2022-07-10T13:50:54;26.80;32.90
14101;DHT22;7127;49.372;8.166;2022-07-10T13:53:21;26.80;33.00
14101;DHT22;7127;49.372;8.166;2022-07-10T13:55:48;26.80;33.20
14101;DHT22;7127;49.372;8.166;2022-07-10T13:58:16;26.80;33.20
14101;DHT22;7127;49.372;8.166;2022-07-10T14:00:45;26.80;33.10
14101;DHT22;7127;49.372;8.166;2022-07-10T14:03:13;26.90;33.10
14101;DHT22;7127;49.372;8.166;2022-07-10T14:05:41;26.80;32.80
14101;DHT22;7127;49.372;8.166;2022-07-10T14:08:07;26.70;32.50
14101;DHT22;7127;49.372;8.166;2022-07-10T14:10:34;26.70;32.60
14101;DHT22;7127;49.372;8.166;2022-07-10T14:13:01;26.60;32.70
14101;DHT22;7127;49.372;8.166;2022-07-10T14:15:30;26.60;33.00
14101;DHT22;7127;49.372;8.166;2022-07-10T14:17:57;26.50;33.00
14101;DHT22;7127;49.372;8.166;2022-07-10T14:20:25;26.50;33.10
14101;DHT22;7127;49.372;8.166;2022-07-10T14:22:52;26.40;33.00
14101;DHT22;7127;49.372;8.166;2022-07-10T14:25:22;26.40;33.10
14101;DHT22;7127;49.372;8.166;2022-07-10T14:27:52;26.40;33.10
14101;DHT22;7127;49.372;8.166;2022-07-10T14:30:19;26.30;33.00
14101;DHT22;7127;49.372;8.166;2022-07-10T14:32:46;26.30;33.10
14101;DHT22;7127;49.372;8.166;2022-07-10T14:35:13;26.20;32.80
14101;DHT22;7127;49.372;8.166;2022-07-10T14:37:41;26.10;33.00
14101;DHT22;7127;49.372;8.166;2022-07-10T14:40:09;26.10;33.10
14101;DHT22;7127;49.372;8.166;2022-07-10T14:42:35;26.00;33.90
14101;DHT22;7127;49.372;8.166;2022-07-10T14:45:04;25.90;33.40
14101;DHT22;7127;49.372;8.166;2022-07-10T14:47:31;25.80;33.40
14101;DHT22;7127;49.372;8.166;2022-07-10T14:49:58;25.80;33.40
14101;DHT22;7127;49.372;8.166;2022-07-10T14:52:25;25.70;33.60
14101;DHT22;7127;49.372;8.166;2022-07-10T14:54:57;25.70;33.70
14101;DHT22;7127;49.372;8.166;2022-07-10T14:57:24;25.60;33.90
14101;DHT22;7127;49.372;8.166;2022-07-10T14:59:51;25.60;33.90
14101;DHT22;7127;49.372;8.166;2022-07-10T15:02:18;25.50;34.00
14101;DHT22;7127;49.372;8.166;2022-07-10T15:04:45;25.50;34.30
14101;DHT22;7127;49.372;8.166;2022-07-10T15:07:12;25.40;34.10
14101;DHT22;7127;49.372;8.166;2022-07-10T15:09:43;25.40;34.40
14101;DHT22;7127;49.372;8.166;2022-07-10T15:12:12;25.40;34.60
14101;DHT22;7127;49.372;8.166;2022-07-10T15:14:39;25.40;34.80
14101;DHT22;7127;49.372;8.166;2022-07-10T15:17:06;25.40;34.80
14101;DHT22;7127;49.372;8.166;2022-07-10T15:19:33;25.40;34.90
14101;DHT22;7127;49.372;8.166;2022-07-10T15:22:00;25.40;35.00
14101;DHT22;7127;49.372;8.166;2022-07-10T15:24:27;25.40;35.10
14101;DHT22;7127;49.372;8.166;2022-07-10T15:26:54;25.40;35.10
14101;DHT22;7127;49.372;8.166;2022-07-10T15:29:22;25.40;35.10
14101;DHT22;7127;49.372;8.166;2022-07-10T15:31:51;25.50;35.20
14101;DHT22;7127;49.372;8.166;2022-07-10T15:34:18;25.40;34.90
14101;DHT22;7127;49.372;8.166;2022-07-10T15:36:45;25.40;34.90
14101;DHT22;7127;49.372;8.166;2022-07-10T15:39:14;25.40;35.00
14101;DHT22;7127;49.372;8.166;2022-07-10T15:41:42;25.40;35.00
14101;DHT22;7127;49.372;8.166;2022-07-10T15:44:11;25.40;35.10
14101;DHT22;7127;49.372;8.166;2022-07-10T15:46:40;25.40;35.20
14101;DHT22;7127;49.372;8.166;2022-07-10T15:49:07;25.50;35.40
14101;DHT22;7127;49.372;8.166;2022-07-10T15:51:37;25.60;35.60
14101;DHT22;7127;49.372;8.166;2022-07-10T15:54:04;25.60;35.60